sensor_id;sensor_type;location;lat;lon;timestamp;pressure;altitude;pressure_sealevel;temperature;humidity
22862;BME280;11598;50.652;6.172;2022-07-10T00:01:40;97524.50;;;10.52;81.19
22862;BME280;11598;50.652;6.172;2022-07-10T00:11:43;97532.00;;;10.43;82.07
22862;BME280;11598;50.652;6.172;2022-07-10T00:21:44;97522.19;;;10.32;82.46
22862;BME280;11598;50.652;6.172;2022-07-10T00:31:44;97521.09;;;10.20;83.02
22862;BME280;11598;50.652;6.172;2022-07-10T00:41:45;97507.59;;;10.13;83.71
22862;BME280;11598;50.652;6.172;2022-07-10T00:51:45;97504.78;;;10.02;83.98
22862;BME280;11598;50.652;6.172;2022-07-10T01:01:46;97489.97;;;9.88;84.70
22862;BME280;11598;50.652;6.172;2022-07-10T01:11:46;97478.41;;;9.78;85.27
22862;BME280;11598;50.652;6.172;2022-07-10T01:21:47;97468.63;;;9.67;85.73
22862;BME280;11598;50.652;6.172;2022-07-10T01:31:48;97457.09;;;9.57;86.46
22862;BME280;11598;50.652;6.172;2022-07-10T01:41:49;97459.41;;;9.46;86.86
22862;BME280;11598;50.652;6.172;2022-07-10T01:51:49;97461.66;;;9.36;87.31
22862;BME280;11598;50.652;6.172;2022-07-10T02:01:50;97456.72;;;9.31;87.93
22862;BME280;11598;50.652;6.172;2022-07-10T02:11:50;97446.91;;;9.21;88.21
22862;BME280;11598;50.652;6.172;2022-07-10T02:21:50;97449.19;;;9.27;88.92
22862;BME280;11598;50.652;6.172;2022-07-10T02:31:51;97446.44;;;9.46;88.97
22862;BME280;11598;50.652;6.172;2022-07-10T02:41:52;97430.22;;;9.58;88.84
22862;BME280;11598;50.652;6.172;2022-07-10T02:51:52;97440.41;;;9.61;89.15
22862;BME280;11598;50.652;6.172;2022-07-10T03:01:52;97451.53;;;9.79;89.12
22862;BME280;11598;50.652;6.172;2022-07-10T03:11:53;97443.63;;;9.97;89.06
22862;BME280;11598;50.652;6.172;2022-07-10T03:21:53;97443.22;;;10.04;89.16
22862;BME280;11598;50.652;6.172;2022-07-10T03:31:53;97448.50;;;10.03;89.07
22862;BME280;11598;50.652;6.172;2022-07-10T03:41:54;97448.44;;;10.04;89.17
22862;BME280;11598;50.652;6.172;2022-07-10T03:51:54;97445.47;;;10.10;89.38
22862;BME280;11598;50.652;6.172;2022-07-10T04:01:55;97443.09;;;10.22;89.18
22862;BME280;11598;50.652;6.172;2022-07-10T04:11:55;97438.44;;;10.28;88.89
22862;BME280;11598;50.652;6.172;2022-07-10T04:21:55;97431.13;;;10.35;89.01
22862;BME280;11598;50.652;6.172;2022-07-10T04:31:56;97419.06;;;10.48;88.86
22862;BME280;11598;50.652;6.172;2022-07-10T04:41:57;97419.00;;;10.64;88.22
22862;BME280;11598;50.652;6.172;2022-07-10T04:51:57;97435.53;;;10.63;88.19
22862;BME280;11598;50.652;6.172;2022-07-10T05:01:58;97441.94;;;10.72;87.66
22862;BME280;11598;50.652;6.172;2022-07-10T05:11:58;97457.19;;;10.78;87.55
22862;BME280;11598;50.652;6.172;2022-07-10T05:21:58;97457.25;;;10.76;87.82
22862;BME280;11598;50.652;6.172;2022-07-10T05:31:59;97459.88;;;11.05;87.60
22862;BME280;11598;50.652;6.172;2022-07-10T05:41:59;97466.22;;;11.15;86.86
22862;BME280;11598;50.652;6.172;2022-07-10T05:51:59;97462.94;;;11.26;86.58
22862;BME280;11598;50.652;6.172;2022-07-10T06:02:01;97462.50;;;11.34;86.37
22862;BME280;11598;50.652;6.172;2022-07-10T06:12:01;97474.44;;;11.65;86.03
22862;BME280;11598;50.652;6.172;2022-07-10T06:22:02;97467.19;;;11.70;85.26
22862;BME280;11598;50.652;6.172;2022-07-10T06:32:21;97464.19;;;11.91;85.24
22862;BME280;11598;50.652;6.172;2022-07-10T06:42:21;97464.63;;;12.24;83.75
22862;BME280;11598;50.652;6.172;2022-07-10T06:52:23;97477.09;;;12.19;83.75
22862;BME280;11598;50.652;6.172;2022-07-10T07:02:23;97491.66;;;12.36;82.93
22862;BME280;11598;50.652;6.172;2022-07-10T07:12:24;97493.94;;;12.41;82.72
22862;BME280;11598;50.652;6.172;2022-07-10T07:22:24;97495.00;;;12.38;82.69
22862;BME280;11598;50.652;6.172;2022-07-10T07:32:45;97495.16;;;12.62;81.67
22862;BME280;11598;50.652;6.172;2022-07-10T07:42:46;97493.31;;;12.77;80.78
22862;BME280;11598;50.652;6.172;2022-07-10T07:52:47;97494.31;;;12.62;80.69
22862;BME280;11598;50.652;6.172;2022-07-10T08:02:48;97493.53;;;12.87;79.72
22862;BME280;11598;50.652;6.172;2022-07-10T08:12:49;97481.22;;;13.40;79.86
22862;BME280;11598;50.652;6.172;2022-07-10T08:22:50;97467.59;;;13.98;75.07
22862;BME280;11598;50.652;6.172;2022-07-10T08:32:51;97475.09;;;13.78;74.87
22862;BME280;11598;50.652;6.172;2022-07-10T08:42:51;97482.16;;;14.13;74.86
22862;BME280;11598;50.652;6.172;2022-07-10T08:53:09;97485.47;;;14.28;74.71
22862;BME280;11598;50.652;6.172;2022-07-10T09:03:09;97481.13;;;14.40;74.65
22862;BME280;11598;50.652;6.172;2022-07-10T09:13:10;97467.16;;;15.10;72.76
22862;BME280;11598;50.652;6.172;2022-07-10T09:33:21;97459.41;;;15.87;69.66
22862;BME280;11598;50.652;6.172;2022-07-10T09:43:25;97452.38;;;15.65;69.40
22862;BME280;11598;50.652;6.172;2022-07-10T09:53:26;97449.53;;;16.23;67.79
22862;BME280;11598;50.652;6.172;2022-07-10T10:03:27;97450.91;;;17.22;66.85
22862;BME280;11598;50.652;6.172;2022-07-10T10:13:28;97449.59;;;16.86;67.18
22862;BME280;11598;50.652;6.172;2022-07-10T10:23:29;97457.66;;;16.73;65.54
22862;BME280;11598;50.652;6.172;2022-07-10T10:43:35;97453.84;;;15.80;67.42
22862;BME280;11598;50.652;6.172;2022-07-10T10:53:36;97466.69;;;15.72;68.39
22862;BME280;11598;50.652;6.172;2022-07-10T11:03:36;97458.34;;;15.44;69.24
22862;BME280;11598;50.652;6.172;2022-07-10T11:13:39;97447.97;;;15.88;70.45
22862;BME280;11598;50.652;6.172;2022-07-10T11:34:07;97440.16;;;16.62;66.28
22862;BME280;11598;50.652;6.172;2022-07-10T11:44:13;97426.88;;;16.54;66.71
22862;BME280;11598;50.652;6.172;2022-07-10T11:54:16;97411.63;;;16.48;67.45
22862;BME280;11598;50.652;6.172;2022-07-10T12:04:20;97420.81;;;16.96;66.74
22862;BME280;11598;50.652;6.172;2022-07-10T12:14:29;97418.53;;;17.12;66.40
22862;BME280;11598;50.652;6.172;2022-07-10T12:24:30;97421.00;;;17.54;65.24
22862;BME280;11598;50.652;6.172;2022-07-10T12:34:40;97428.34;;;17.50;64.24
22862;BME280;11598;50.652;6.172;2022-07-10T12:44:44;97432.78;;;17.19;65.31
22862;BME280;11598;50.652;6.172;2022-07-10T12:54:48;97430.44;;;17.26;66.63
22862;BME280;11598;50.652;6.172;2022-07-10T13:04:55;97426.66;;;17.09;66.90
22862;BME280;11598;50.652;6.172;2022-07-10T13:14:56;97429.19;;;16.89;67.89
22862;BME280;11598;50.652;6.172;2022-07-10T13:24:56;97425.91;;;16.97;67.38
22862;BME280;11598;50.652;6.172;2022-07-10T13:34:57;97428.41;;;16.57;68.97
22862;BME280;11598;50.652;6.172;2022-07-10T13:44:57;97417.28;;;16.85;68.65
22862;BME280;11598;50.652;6.172;2022-07-10T13:54:58;97412.84;;;17.47;67.27
22862;BME280;11598;50.652;6.172;2022-07-10T14:04:58;97407.34;;;17.70;67.24
22862;BME280;11598;50.652;6.172;2022-07-10T14:14:59;97409.81;;;17.52;67.46
22862;BME280;11598;50.652;6.172;2022-07-10T14:25:00;97416.41;;;17.37;67.91
22862;BME280;11598;50.652;6.172;2022-07-10T14:35:00;97405.25;;;17.54;67.04
22862;BME280;11598;50.652;6.172;2022-07-10T14:45:01;97404.09;;;17.37;67.94
22862;BME280;11598;50.652;6.172;2022-07-10T14:55:01;97396.56;;;17.73;67.35
22862;BME280;11598;50.652;6.172;2022-07-10T15:05:02;97372.81;;;18.04;66.70
22862;BME280;11598;50.652;6.172;2022-07-10T15:15:04;97371.47;;;17.90;66.35
22862;BME280;11598;50.652;6.172;2022-07-10T15:25:08;97373.25;;;18.09;66.31
22862;BME280;11598;50.652;6.172;2022-07-10T15:35:08;97373.13;;;17.91;66.06
22862;BME280;11598;50.652;6.172;2022-07-10T15:45:09;97366.81;;;17.63;67.67
22862;BME280;11598;50.652;6.172;2022-07-10T15:55:11;97350.13;;;17.73;67.42
22862;BME280;11598;50.652;6.172;2022-07-10T16:05:13;97356.50;;;17.81;67.20
22862;BME280;11598;50.652;6.172;2022-07-10T16:15:13;97346.19;;;17.48;67.88
22862;BME280;11598;50.652;6.172;2022-07-10T16:25:13;97349.59;;;17.20;69.05
22862;BME280;11598;50.652;6.172;2022-07-10T16:35:33;97343.34;;;17.11;69.25
22862;BME280;11598;50.652;6.172;2022-07-10T16:45:33;97339.47;;;17.05;70.00
22862;BME280;11598;50.652;6.172;2022-07-10T16:55:34;97326.31;;;16.96;71.02
22862;BME280;11598;50.652;6.172;2022-07-10T17:05:34;97322.75;;;17.16;70.65
22862;BME280;11598;50.652;6.172;2022-07-10T17:15:35;97325.78;;;17.11;70.81
22862;BME280;11598;50.652;6.172;2022-07-10T17:25:35;97331.16;;;17.00;70.92
22862;BME280;11598;50.652;6.172;2022-07-10T17:35:36;97320.34;;;16.94;71.68
22862;BME280;11598;50.652;6.172;2022-07-10T17:45:37;97329.44;;;16.89;72.23
22862;BME280;11598;50.652;6.172;2022-07-10T17:55:37;97320.91;;;16.76;72.16
22862;BME280;11598;50.652;6.172;2022-07-10T18:05:37;97327.22;;;16.64;72.77
22862;BME280;11598;50.652;6.172;2022-07-10T18:15:38;97319.88;;;16.58;72.67
22862;BME280;11598;50.652;6.172;2022-07-10T18:25:38;97324.81;;;16.51;73.66
22862;BME280;11598;50.652;6.172;2022-07-10T18:35:38;97316.06;;;16.41;73.82
22862;BME280;11598;50.652;6.172;2022-07-10T18:45:39;97319.22;;;16.35;74.24
22862;BME280;11598;50.652;6.172;2022-07-10T18:55:39;97312.81;;;16.27;74.13
22862;BME280;11598;50.652;6.172;2022-07-10T19:05:40;97311.78;;;16.19;75.12
22862;BME280;11598;50.652;6.172;2022-07-10T19:15:40;97306.94;;;16.14;75.75
22862;BME280;11598;50.652;6.172;2022-07-10T19:25:40;97299.94;;;16.03;76.67
22862;BME280;11598;50.652;6.172;2022-07-10T19:35:41;97306.66;;;15.96;77.18
22862;BME280;11598;50.652;6.172;2022-07-10T19:45:41;97299.81;;;15.84;78.60
22862;BME280;11598;50.652;6.172;2022-07-10T19:55:41;97305.94;;;15.73;79.35
22862;BME280;11598;50.652;6.172;2022-07-10T20:05:42;97314.63;;;15.62;79.80
22862;BME280;11598;50.652;6.172;2022-07-10T20:15:42;97319.78;;;15.53;80.24
22862;BME280;11598;50.652;6.172;2022-07-10T20:25:43;97305.53;;;15.46;80.97
22862;BME280;11598;50.652;6.172;2022-07-10T20:35:43;97311.50;;;15.36;81.57
22862;BME280;11598;50.652;6.172;2022-07-10T20:45:43;97311.06;;;15.31;81.86
22862;BME280;11598;50.652;6.172;2022-07-10T20:55:44;97308.09;;;15.25;82.54
22862;BME280;11598;50.652;6.172;2022-07-10T21:05:44;97301.53;;;15.19;82.66
22862;BME280;11598;50.652;6.172;2022-07-10T21:15:45;97304.06;;;15.09;82.92
22862;BME280;11598;50.652;6.172;2022-07-10T21:25:46;97311.44;;;15.04;83.36
22862;BME280;11598;50.652;6.172;2022-07-10T21:35:46;97312.75;;;14.98;83.58
22862;BME280;11598;50.652;6.172;2022-07-10T21:45:47;97312.06;;;14.96;83.80
22862;BME280;11598;50.652;6.172;2022-07-10T21:55:47;97303.75;;;14.91;84.18
22862;BME280;11598;50.652;6.172;2022-07-10T22:05:47;97307.44;;;14.89;84.37
22862;BME280;11598;50.652;6.172;2022-07-10T22:15:49;97308.38;;;14.88;84.41
22862;BME280;11598;50.652;6.172;2022-07-10T22:25:49;97306.47;;;14.90;84.65
22862;BME280;11598;50.652;6.172;2022-07-10T22:35:49;97301.13;;;14.91;84.58
22862;BME280;11598;50.652;6.172;2022-07-10T22:45:50;97296.81;;;14.90;84.86
22862;BME280;11598;50.652;6.172;2022-07-10T22:55:50;97298.50;;;14.91;84.87
22862;BME280;11598;50.652;6.172;2022-07-10T23:05:51;97294.91;;;14.92;84.34
22862;BME280;11598;50.652;6.172;2022-07-10T23:15:53;97281.94;;;14.91;84.27
22862;BME280;11598;50.652;6.172;2022-07-10T23:25:53;97266.88;;;14.83;84.07
22862;BME280;11598;50.652;6.172;2022-07-10T23:35:53;97258.34;;;14.70;84.53
22862;BME280;11598;50.652;6.172;2022-07-10T23:45:54;97256.66;;;14.57;84.95
22862;BME280;11598;50.652;6.172;2022-07-10T23:55:54;97253.06;;;14.47;85.34
